Time;durP1;ratioP1;P1;durP2;ratioP2;P2;SDS_P1;SDS_P2;PMS_P1;PMS_P2;Temp;Humidity;BMP_temperature;BMP_pressure;BME280_temperature;BME280_humidity;BME280_pressure;Samples;Min_cycle;Max_cycle;Signal;HPM_P1;HPM_P2
2020/12/16 00:02:43;;;;;;;3.28;1.25;;;;;;;4.73;100.00;98856.28;4882463;29;20113;-83
2020/12/16 00:05:46;;;;;;;1.85;0.73;;;;;;;4.75;100.00;98853.84;4881763;29;20044;-83
2020/12/16 00:08:51;;;;;;;2.05;0.85;;;;;;;4.76;100.00;98839.63;4882234;29;20052;-83
2020/12/16 00:11:54;;;;;;;2.78;0.95;;;;;;;4.81;100.00;98841.00;4881936;29;20101;-82
2020/12/16 00:14:58;;;;;;;1.85;0.50;;;;;;;4.87;100.00;98836.38;4882153;29;20140;-82
2020/12/16 00:18:01;;;;;;;3.42;0.75;;;;;;;4.88;100.00;98832.38;4881271;29;20048;-82
2020/12/16 00:21:04;;;;;;;16.35;0.90;;;;;;;4.89;100.00;98826.44;4881293;29;20096;-84
2020/12/16 00:24:07;;;;;;;6.65;2.25;;;;;;;4.97;100.00;98821.34;4880684;29;20413;-83
2020/12/16 00:27:39;;;;;;;;;;;;;;;;;;;;;
2020/12/16 00:30:37;;;;;;;1.00;0.43;;;;;;;5.14;100.00;98817.78;4881710;29;20048;-83
2020/12/16 00:33:41;;;;;;;0.65;0.60;;;;;;;5.22;100.00;98820.97;4881572;29;20549;-83
2020/12/16 00:37:24;;;;;;;4.35;0.35;;;;;;;5.28;100.00;98824.66;4880852;29;20573;-83
2020/12/16 00:40:27;;;;;;;2.95;1.38;;;;;;;5.30;100.00;98814.69;4880785;29;20132;-82
2020/12/16 00:43:30;;;;;;;5.57;1.50;;;;;;;5.34;100.00;98823.56;4881241;29;20109;-83
2020/12/16 00:46:33;;;;;;;2.90;1.48;;;;;;;5.36;100.00;98821.09;4881870;29;20113;-82
2020/12/16 00:49:36;;;;;;;4.78;0.90;;;;;;;5.40;100.00;98820.91;4881538;29;20093;-82
2020/12/16 00:52:39;;;;;;;2.28;1.17;;;;;;;5.40;100.00;98820.91;4881732;29;20109;-83
2020/12/16 00:55:42;;;;;;;3.20;0.95;;;;;;;5.41;100.00;98810.66;4880173;29;20093;-83
2020/12/16 00:58:45;;;;;;;1.23;0.63;;;;;;;5.45;100.00;98800.97;4881490;29;20064;-83
2020/12/16 01:01:48;;;;;;;1.30;0.35;;;;;;;5.49;100.00;98801.56;4881527;29;20071;-83
2020/12/16 01:04:57;;;;;;;0.77;0.10;;;;;;;5.49;100.00;98796.03;4881161;29;20052;-82
2020/12/16 01:12:08;;;;;;;1.35;0.70;;;;;;;5.57;100.00;98780.66;4880623;29;20048;-83
2020/12/16 01:15:19;;;;;;;0.88;0.55;;;;;;;5.58;100.00;98768.38;4880474;29;20562;-83
2020/12/16 01:21:54;;;;;;;3.42;1.13;;;;;;;5.61;100.00;98748.09;4880925;29;20573;-83
2020/12/16 01:25:20;;;;;;;3.20;0.85;;;;;;;5.64;100.00;98747.19;4869221;29;20047;-83
2020/12/16 01:28:50;;;;;;;0.85;0.43;;;;;;;5.64;100.00;98752.69;4881063;29;20051;-81
2020/12/16 01:31:53;;;;;;;2.92;0.88;;;;;;;5.62;100.00;98744.13;4868858;29;20065;-81
2020/12/16 01:34:55;;;;;;;6.28;0.55;;;;;;;5.62;100.00;98744.13;4880746;29;20121;-81
2020/12/16 01:38:10;;;;;;;1.52;1.00;;;;;;;5.56;100.00;98729.44;4880659;29;20093;-81
2020/12/16 01:41:13;;;;;;;3.50;0.77;;;;;;;5.58;100.00;98728.94;4880400;29;20097;-80
2020/12/16 01:44:18;;;;;;;2.55;0.43;;;;;;;5.53;100.00;98722.06;4880539;29;20048;-81
2020/12/16 01:47:24;;;;;;;3.13;0.88;;;;;;;5.51;100.00;98730.06;4868925;29;20044;-81
2020/12/16 01:50:27;;;;;;;8.18;1.25;;;;;;;5.52;100.00;98728.06;4869123;29;20047;-81
2020/12/16 01:53:32;;;;;;;7.45;0.93;;;;;;;5.53;100.00;98727.59;4880308;29;20068;-81
2020/12/16 02:00:09;;;;;;;6.77;0.60;;;;;;;5.61;100.00;98720.47;4881224;29;20578;-82
2020/12/16 02:04:01;;;;;;;1.05;0.75;;;;;;;5.67;100.00;98726.16;4880511;29;20336;-83
2020/12/16 02:07:09;;;;;;;1.67;0.60;;;;;;;5.76;100.00;98732.34;4867748;29;20060;-82
2020/12/16 02:10:15;;;;;;;2.42;0.38;;;;;;;5.80;100.00;98732.97;4867938;29;20055;-83
2020/12/16 02:13:36;;;;;;;0.77;0.20;;;;;;;5.84;100.00;98732.81;4878977;29;20052;-82
2020/12/16 02:16:40;;;;;;;1.80;0.60;;;;;;;5.84;100.00;98730.81;4879581;29;20410;-82
2020/12/16 02:19:54;;;;;;;22.38;1.05;;;;;;;5.91;100.00;98726.94;4880054;29;20282;-82
2020/12/16 02:22:57;;;;;;;3.72;1.88;;;;;;;5.94;100.00;98732.28;4879035;29;20101;-82
2020/12/16 02:26:20;;;;;;;10.40;0.50;;;;;;;6.02;100.00;98722.38;4879594;29;20553;-82
2020/12/16 02:29:24;;;;;;;2.47;0.75;;;;;;;6.01;100.00;98728.38;4879588;29;20055;-82
2020/12/16 02:33:08;;;;;;;7.00;0.82;;;;;;;5.99;100.00;98719.81;4878447;29;20048;-81
2020/12/16 02:36:33;;;;;;;2.25;0.75;;;;;;;6.02;100.00;98705.06;4849241;29;20159;-82
2020/12/16 02:40:11;;;;;;;2.10;1.17;;;;;;;6.02;100.00;98694.75;4878875;29;20128;-82
2020/12/16 02:43:44;;;;;;;7.50;0.50;;;;;;;6.03;100.00;98679.72;4879170;29;20064;-82
2020/12/16 02:46:47;;;;;;;1.75;0.50;;;;;;;6.03;100.00;98685.22;4840093;29;20057;-82
2020/12/16 02:50:15;;;;;;;6.32;1.65;;;;;;;6.08;100.00;98670.00;4840516;29;20640;-82
2020/12/16 03:03:45;;;;;;;5.70;0.57;;;;;;;6.21;100.00;98651.16;4761345;29;20057;-82
2020/12/16 03:06:49;;;;;;;0.15;0.10;;;;;;;6.26;100.00;98652.50;4840011;29;20084;-81
2020/12/16 03:09:51;;;;;;;0.82;0.10;;;;;;;6.28;100.00;98641.72;4879260;29;20055;-82
2020/12/16 03:13:18;;;;;;;3.53;0.77;;;;;;;6.31;100.00;98627.69;4860954;29;20072;-82
2020/12/16 03:16:21;;;;;;;2.40;1.10;;;;;;;6.33;100.00;98627.22;4848814;29;20048;-82
2020/12/16 03:19:43;;;;;;;2.83;0.80;;;;;;;6.36;100.00;98631.81;4847575;29;20140;-82
2020/12/16 03:22:46;;;;;;;1.08;0.90;;;;;;;6.31;100.00;98619.41;4860093;29;20049;-82
2020/12/16 03:26:09;;;;;;;0.80;0.60;;;;;;;6.31;100.00;98611.09;4859813;29;20562;-82
2020/12/16 03:29:12;;;;;;;16.00;0.70;;;;;;;6.30;100.00;98603.31;4860101;29;20124;-81
2020/12/16 03:32:18;;;;;;;1.25;0.47;;;;;;;6.32;100.00;98611.88;4859690;29;20044;-82
2020/12/16 03:35:53;;;;;;;1.60;0.30;;;;;;;6.33;100.00;98624.44;4860071;29;20040;-82
2020/12/16 03:38:56;;;;;;;6.15;1.05;;;;;;;6.29;100.00;98613.59;4785130;30;20058;-82
2020/12/16 03:45:46;;;;;;;0.95;0.40;;;;;;;6.29;100.00;98612.81;4714135;30;20087;-82
2020/12/16 03:48:49;;;;;;;0.28;0.10;;;;;;;6.34;100.00;98612.16;4736111;29;20109;-82
2020/12/16 03:51:55;;;;;;;0.45;0.13;;;;;;;6.35;100.00;98594.31;4848610;29;20064;-82
2020/12/16 03:54:58;;;;;;;1.30;1.20;;;;;;;6.35;100.00;98600.63;4848361;29;20047;-82
2020/12/16 03:58:01;;;;;;;0.75;0.32;;;;;;;6.35;100.00;98605.38;4860194;29;20125;-82
2020/12/16 04:01:55;;;;;;;;;;;;;;;;;;;;;
2020/12/16 04:04:58;;;;;;;3.35;0.55;;;;;;;6.34;100.00;98609.41;4859648;29;20048;-82
2020/12/16 04:08:27;;;;;;;0.85;0.45;;;;;;;6.37;100.00;98613.94;4860021;29;20187;-82
2020/12/16 04:15:12;;;;;;;0.38;0.10;;;;;;;6.46;100.00;98583.44;4878606;29;20052;-82
2020/12/16 04:18:15;;;;;;;0.40;0.25;;;;;;;6.46;100.00;98569.63;4878317;29;20049;-83
2020/12/16 04:25:00;;;;;;;0.82;0.63;;;;;;;6.46;100.00;98577.91;4878424;29;20088;-83
2020/12/16 04:28:03;;;;;;;1.55;0.13;;;;;;;6.44;100.00;98574.88;4878239;29;20136;-82
2020/12/16 04:31:09;;;;;;;0.68;0.43;;;;;;;6.41;100.00;98567.53;4881601;29;20052;-81
2020/12/16 04:34:12;;;;;;;1.23;0.32;;;;;;;6.41;100.00;98571.03;4881438;29;20051;-81
2020/12/16 04:40:37;;;;;;;0.77;0.57;;;;;;;6.43;100.00;98562.28;4881433;29;20044;-83
2020/12/16 04:44:07;;;;;;;2.88;0.47;;;;;;;6.48;100.00;98550.53;4870026;29;20524;-82
2020/12/16 04:47:11;;;;;;;2.05;0.25;;;;;;;6.52;100.00;98548.38;4869429;29;20048;-84
2020/12/16 04:50:30;;;;;;;1.25;0.40;;;;;;;6.52;100.00;98537.31;4869449;29;20052;-82
2020/12/16 04:53:54;;;;;;;1.23;0.35;;;;;;;6.50;100.00;98542.53;4881306;29;20531;-81
2020/12/16 04:57:16;;;;;;;0.20;0.13;;;;;;;6.49;100.00;98543.78;4795994;29;20544;-82
2020/12/16 05:00:38;;;;;;;3.33;0.55;;;;;;;6.47;100.00;98540.72;4881494;29;20039;-82
2020/12/16 05:04:10;;;;;;;10.23;1.38;;;;;;;6.51;100.00;98550.38;4881219;29;20055;-82
2020/12/16 05:07:31;;;;;;;3.60;0.68;;;;;;;6.55;100.00;98542.63;4881071;29;20048;-83
2020/12/16 05:10:36;;;;;;;0.77;0.77;;;;;;;6.57;100.00;98545.66;4880994;29;20072;-83
2020/12/16 05:13:39;;;;;;;0.20;0.20;;;;;;;6.60;100.00;98561.31;4880867;29;20088;-82
2020/12/16 05:17:31;;;;;;;0.10;0.10;;;;;;;6.62;100.00;98555.28;4881229;29;20052;-81
2020/12/16 05:20:39;;;;;;;0.38;0.13;;;;;;;6.59;100.00;98548.72;4812973;29;20067;-81
2020/12/16 05:27:09;;;;;;;0.45;0.13;;;;;;;6.58;100.00;98530.59;4880703;29;20100;-81
2020/12/16 05:30:12;;;;;;;8.43;0.80;;;;;;;6.65;100.00;98534.97;4880586;29;20044;-81
2020/12/16 05:33:15;;;;;;;1.65;0.47;;;;;;;6.66;100.00;98531.72;4879406;29;20566;-81
2020/12/16 05:36:29;;;;;;;1.70;0.75;;;;;;;6.65;100.00;98534.97;4879219;29;21160;-81
2020/12/16 05:39:33;;;;;;;0.35;0.13;;;;;;;6.67;100.00;98526.97;4880541;29;20108;-81
2020/12/16 05:43:02;;;;;;;16.20;0.68;;;;;;;6.72;100.00;98517.97;4880288;29;20048;-81
2020/12/16 05:46:05;;;;;;;11.25;1.42;;;;;;;6.78;100.00;98521.56;4841230;29;20098;-80
2020/12/16 05:49:40;;;;;;;4.57;1.08;;;;;;;6.82;100.00;98527.69;4841364;29;20048;-82
2020/12/16 05:52:45;;;;;;;1.00;0.47;;;;;;;6.87;100.00;98516.66;4768784;30;20113;-81
2020/12/16 05:55:58;;;;;;;0.22;0.15;;;;;;;6.89;100.00;98522.50;4815047;29;20088;-81
2020/12/16 05:59:07;;;;;;;2.35;0.98;;;;;;;6.91;100.00;98533.06;4840509;29;20187;-81
2020/12/16 06:02:10;;;;;;;0.90;0.28;;;;;;;6.85;100.00;98527.47;4847697;29;20124;-81
2020/12/16 06:05:20;;;;;;;0.35;0.10;;;;;;;6.83;100.00;98526.41;4879827;29;20047;-81
2020/12/16 06:08:27;;;;;;;0.20;0.10;;;;;;;6.82;100.00;98522.16;4879887;29;20055;-81
2020/12/16 06:19:25;;;;;;;0.40;0.20;;;;;;;6.80;100.00;98524.59;4844057;29;20093;-81
2020/12/16 06:22:33;;;;;;;12.13;0.55;;;;;;;6.77;100.00;98515.28;4880034;29;20048;-81
2020/12/16 06:25:56;;;;;;;0.65;0.15;;;;;;;6.75;100.00;98523.31;4879715;29;20104;-81
2020/12/16 06:29:31;;;;;;;1.15;0.13;;;;;;;6.72;100.00;98523.50;4879566;29;20061;-81
2020/12/16 06:32:43;;;;;;;0.32;0.20;;;;;;;6.67;100.00;98515.91;4879303;29;20120;-81
2020/12/16 06:39:36;;;;;;;2.63;0.50;;;;;;;6.64;100.00;98509.31;4822145;29;20082;-81
2020/12/16 06:42:39;;;;;;;5.28;0.38;;;;;;;6.67;100.00;98518.66;4822105;29;20092;-82
2020/12/16 06:45:42;;;;;;;1.10;0.45;;;;;;;6.66;100.00;98526.19;4811459;29;20062;-80
2020/12/16 06:48:45;;;;;;;0.20;0.20;;;;;;;6.68;100.00;98517.41;4821976;29;20094;-81
2020/12/16 06:52:21;;;;;;;5.63;1.05;;;;;;;6.68;100.00;98512.63;4821505;29;20057;-81
2020/12/16 06:55:23;;;;;;;0.80;0.10;;;;;;;6.69;100.00;98514.16;4859334;29;20141;-80
2020/12/16 06:58:37;;;;;;;2.55;0.65;;;;;;;6.67;100.00;98524.19;4879245;29;20101;-80
2020/12/16 07:02:03;;;;;;;1.05;0.25;;;;;;;6.69;100.00;98514.16;4878672;29;20100;-81
2020/12/16 07:05:42;;;;;;;0.50;0.40;;;;;;;6.66;100.00;98509.59;4878991;29;20084;-81
2020/12/16 07:08:45;;;;;;;3.78;1.17;;;;;;;6.64;100.00;98516.84;4878436;29;20102;-81
2020/12/16 07:11:50;;;;;;;5.15;0.20;;;;;;;6.68;100.00;98514.63;4878463;29;20051;-80
2020/12/16 07:14:53;;;;;;;2.88;0.63;;;;;;;6.67;100.00;98510.38;4878940;29;20044;-80
2020/12/16 07:18:23;;;;;;;2.47;1.15;;;;;;;6.65;100.00;98504.53;4878862;29;20079;-81
2020/12/16 07:22:14;;;;;;;1.65;0.60;;;;;;;6.67;100.00;98504.84;4878790;29;20055;-82
2020/12/16 07:25:19;;;;;;;6.57;0.95;;;;;;;6.67;100.00;98499.31;4839697;29;20541;-82
2020/12/16 07:28:23;;;;;;;7.57;1.33;;;;;;;6.67;100.00;98511.09;4839519;29;20098;-82
2020/12/16 07:31:27;;;;;;;4.70;0.70;;;;;;;6.71;100.00;98527.53;4844755;29;20057;-82
2020/12/16 07:34:46;;;;;;;1.60;0.35;;;;;;;6.73;100.00;98519.50;4878692;29;20079;-82
2020/12/16 07:37:51;;;;;;;2.60;0.57;;;;;;;6.74;100.00;98518.25;4878858;29;20132;-81
2020/12/16 07:41:13;;;;;;;0.65;0.28;;;;;;;6.76;100.00;98502.69;4878704;29;20612;-82
2020/12/16 07:44:16;;;;;;;0.60;0.32;;;;;;;6.76;100.00;98501.91;4878802;29;20044;-83
2020/12/16 07:47:19;;;;;;;0.20;0.20;;;;;;;6.75;100.00;98512.25;4878259;29;20080;-83
2020/12/16 07:50:22;;;;;;;5.57;0.32;;;;;;;6.76;100.00;98512.97;4878634;29;20056;-83
2020/12/16 07:53:25;;;;;;;0.95;0.55;;;;;;;6.74;100.00;98509.94;4878563;29;20051;-82
2020/12/16 07:59:56;;;;;;;13.25;0.57;;;;;;;6.70;100.00;98510.16;4878731;29;20132;-81
2020/12/16 08:03:21;;;;;;;1.27;0.30;;;;;;;6.71;100.00;98505.38;4878297;29;20048;-82
2020/12/16 08:06:24;;;;;;;3.33;0.68;;;;;;;6.73;100.00;98514.72;4882567;29;20052;-83
2020/12/16 08:09:27;;;;;;;0.25;0.10;;;;;;;6.74;100.00;98498.88;4881962;29;20052;-82
2020/12/16 08:12:32;;;;;;;3.60;0.77;;;;;;;6.72;100.00;98495.84;4863230;29;20048;-81
2020/12/16 08:15:35;;;;;;;0.25;0.25;;;;;;;6.71;100.00;98508.91;4863226;29;20521;-81
2020/12/16 08:18:45;;;;;;;8.80;1.08;;;;;;;6.73;100.00;98516.72;4863232;29;20082;-80
2020/12/16 08:25:55;;;;;;;3.53;0.20;;;;;;;6.77;100.00;98509.00;4863117;29;20529;-81
2020/12/16 08:28:51;;;;;;;2.47;0.20;;;;;;;6.74;100.00;98526.53;4863244;29;20047;-79
2020/12/16 08:31:56;;;;;;;3.33;0.13;;;;;;;6.73;100.00;98523.03;4862920;29;20056;-80
2020/12/16 08:35:05;;;;;;;0.25;0.15;;;;;;;6.73;100.00;98508.44;4863165;29;20056;-79
2020/12/16 08:38:49;;;;;;;0.10;0.10;;;;;;;6.77;100.00;98514.53;4863154;29;20478;-79
2020/12/16 08:42:16;;;;;;;0.47;0.47;;;;;;;6.74;100.00;98521.00;4862519;29;20116;-80
2020/12/16 08:49:01;;;;;;;0.00;0.00;;;;;;;6.72;100.00;98526.25;4863017;29;20513;-79
2020/12/16 08:52:04;;;;;;;15.50;0.80;;;;;;;6.74;100.00;98515.47;4878883;29;20051;-82
2020/12/16 08:55:15;;;;;;;11.00;1.00;;;;;;;6.76;100.00;98512.97;4881165;29;20051;-80
2020/12/16 08:58:33;;;;;;;0.20;0.13;;;;;;;6.79;100.00;98507.28;4881096;29;20067;-80
2020/12/16 09:01:39;;;;;;;0.10;0.05;;;;;;;6.80;100.00;98519.84;4881386;29;20446;-81
2020/12/16 09:04:43;;;;;;;0.10;0.10;;;;;;;6.77;100.00;98509.00;4880893;29;20143;-81
2020/12/16 09:08:44;;;;;;;1.23;0.30;;;;;;;6.81;100.00;98513.06;4880949;29;20055;-80
2020/12/16 09:11:49;;;;;;;0.30;0.20;;;;;;;6.85;100.00;98518.41;4826923;29;20115;-81
2020/12/16 09:14:58;;;;;;;4.43;0.70;;;;;;;6.85;100.00;98510.88;4823343;29;20087;-81
2020/12/16 09:18:01;;;;;;;9.07;0.20;;;;;;;6.86;100.00;98506.84;4880757;29;20532;-81
2020/12/16 09:21:06;;;;;;;5.15;0.38;;;;;;;6.92;100.00;98506.94;4881161;29;20465;-81
2020/12/16 09:24:09;;;;;;;9.25;0.52;;;;;;;6.97;100.00;98511.00;4879807;29;20096;-83
2020/12/16 09:27:12;;;;;;;0.20;0.10;;;;;;;6.98;100.00;98504.97;4880416;29;20147;-82
2020/12/16 09:30:26;;;;;;;0.10;0.03;;;;;;;6.99;100.00;98512.06;4880586;29;20059;-82
2020/12/16 09:33:28;;;;;;;3.15;0.30;;;;;;;7.00;100.00;98501.72;4880804;29;20105;-82
2020/12/16 09:36:31;;;;;;;0.98;0.68;;;;;;;7.01;100.00;98504.03;4880548;29;20052;-82
2020/12/16 09:39:34;;;;;;;0.20;0.20;;;;;;;7.07;100.00;98504.09;4880493;29;20671;-82
2020/12/16 09:42:59;;;;;;;1.58;1.23;;;;;;;7.11;100.00;98499.88;4880277;29;20105;-82
2020/12/16 09:46:23;;;;;;;1.05;0.20;;;;;;;7.14;100.00;98493.38;4879876;29;20096;-81
2020/12/16 09:49:33;;;;;;;2.60;0.30;;;;;;;7.15;100.00;98505.94;4857459;29;20064;-82
2020/12/16 09:52:44;;;;;;;4.38;0.17;;;;;;;7.16;100.00;98507.50;4880379;29;20060;-80
2020/12/16 09:55:49;;;;;;;1.27;1.17;;;;;;;7.17;100.00;98503.47;4880145;29;20056;-81
2020/12/16 09:58:53;;;;;;;4.53;1.38;;;;;;;7.19;100.00;98497.44;4879316;29;20045;-81
2020/12/16 10:01:56;;;;;;;6.65;0.77;;;;;;;7.22;100.00;98508.31;4879194;29;20048;-81
2020/12/16 10:04:59;;;;;;;0.10;0.10;;;;;;;7.23;100.00;98496.00;4879302;29;20517;-82
2020/12/16 10:08:25;;;;;;;0.10;0.00;;;;;;;7.25;100.00;98509.34;4879426;29;20516;-80
2020/12/16 10:11:48;;;;;;;3.63;0.20;;;;;;;7.22;100.00;98508.31;4859289;29;20056;-80
2020/12/16 10:15:10;;;;;;;1.73;0.90;;;;;;;7.21;100.00;98520.63;4878409;29;20105;-80
2020/12/16 10:18:13;;;;;;;3.42;0.55;;;;;;;7.23;100.00;98518.16;4879005;29;20048;-80
2020/12/16 10:21:16;;;;;;;3.13;0.85;;;;;;;7.26;100.00;98522.69;4879130;29;20051;-80
2020/12/16 10:24:57;;;;;;;0.43;0.10;;;;;;;7.33;100.00;98515.97;4878510;29;20048;-80
2020/12/16 10:28:01;;;;;;;1.35;0.60;;;;;;;7.34;100.00;98507.19;4838637;29;20079;-80
2020/12/16 10:31:04;;;;;;;3.60;0.90;;;;;;;7.33;100.00;98513.22;4840356;29;20136;-81
2020/12/16 10:34:07;;;;;;;0.10;0.10;;;;;;;7.34;100.00;98507.19;4879392;29;20084;-79
2020/12/16 10:37:10;;;;;;;1.77;0.50;;;;;;;7.37;100.00;98511.00;4879362;29;20463;-80
2020/12/16 10:40:13;;;;;;;3.92;0.95;;;;;;;7.37;100.00;98497.16;4879439;29;20106;-80
2020/12/16 10:43:15;;;;;;;7.80;0.28;;;;;;;7.39;100.00;98498.19;4879263;29;20056;-80
2020/12/16 10:46:18;;;;;;;1.60;0.47;;;;;;;7.38;100.00;98501.44;4879136;29;20465;-81
2020/12/16 10:49:23;;;;;;;0.15;0.10;;;;;;;7.36;100.00;98496.38;4878962;29;20048;-81
2020/12/16 10:52:26;;;;;;;0.70;0.22;;;;;;;7.35;100.00;98492.09;4879203;29;20043;-81
2020/12/16 10:55:29;;;;;;;2.53;0.98;;;;;;;7.32;100.00;98476.44;4878844;29;20117;-81
2020/12/16 10:58:32;;;;;;;0.98;0.55;;;;;;;7.33;100.00;98493.84;4879119;29;20612;-80
2020/12/16 11:01:36;;;;;;;2.83;0.35;;;;;;;7.33;100.00;98489.06;4879046;29;20557;-79
2020/12/16 11:04:39;;;;;;;1.10;0.20;;;;;;;7.34;100.00;98481.53;4878874;29;20089;-80
2020/12/16 11:07:42;;;;;;;1.25;0.73;;;;;;;7.33;100.00;98477.97;4878841;29;20095;-80
2020/12/16 11:10:51;;;;;;;1.85;0.32;;;;;;;7.35;100.00;98481.03;4878225;29;20048;-79
2020/12/16 11:13:54;;;;;;;0.63;0.22;;;;;;;7.32;100.00;98470.91;4870969;29;20052;-79
2020/12/16 11:16:57;;;;;;;0.10;0.10;;;;;;;7.34;100.00;98470.44;4881590;29;20120;-79
2020/12/16 11:20:00;;;;;;;3.70;0.30;;;;;;;7.32;100.00;98470.91;4878776;29;20097;-80
2020/12/16 11:23:03;;;;;;;9.07;0.40;;;;;;;7.30;100.00;98467.88;4878301;29;20524;-79
2020/12/16 11:26:06;;;;;;;0.20;0.20;;;;;;;7.28;100.00;98470.38;4878722;29;20184;-79
2020/12/16 11:29:10;;;;;;;5.72;0.47;;;;;;;7.29;100.00;98466.38;4878040;29;20570;-80
2020/12/16 11:32:12;;;;;;;11.05;0.40;;;;;;;7.28;100.00;98477.91;4878576;29;20052;-79
2020/12/16 11:35:15;;;;;;;1.38;0.85;;;;;;;7.28;100.00;98470.38;4879000;29;20048;-82
2020/12/16 11:38:18;;;;;;;1.85;0.55;;;;;;;7.27;100.00;98463.31;4877537;29;20127;-84
2020/12/16 11:41:21;;;;;;;5.47;0.85;;;;;;;7.27;100.00;98457.78;4878212;29;20101;-81
2020/12/16 11:44:25;;;;;;;5.35;0.77;;;;;;;7.27;100.00;98463.31;4878508;29;20145;-81
2020/12/16 11:47:28;;;;;;;0.32;0.22;;;;;;;7.25;100.00;98465.81;4867216;29;20105;-80
2020/12/16 11:50:31;;;;;;;6.88;1.17;;;;;;;7.25;100.00;98465.81;4867022;29;20517;-80
2020/12/16 11:53:34;;;;;;;0.38;0.30;;;;;;;7.23;100.00;98462.00;4878326;29;20091;-81
2020/12/16 11:56:37;;;;;;;1.23;0.10;;;;;;;7.22;100.00;98460.47;4878294;29;20437;-81
2020/12/16 11:59:40;;;;;;;4.57;0.52;;;;;;;7.20;100.00;98458.19;4878435;29;20132;-80
2020/12/16 12:02:44;;;;;;;1.35;0.15;;;;;;;7.20;100.00;98452.66;4878516;29;20100;-81
2020/12/16 12:05:48;;;;;;;3.15;0.32;;;;;;;7.20;100.00;98447.13;4878321;29;20102;-81
2020/12/16 12:08:51;;;;;;;0.20;0.15;;;;;;;7.19;100.00;98442.09;4878312;29;20129;-82
2020/12/16 12:11:54;;;;;;;3.30;0.75;;;;;;;7.19;100.00;98444.84;4877878;29;20140;-82
2020/12/16 12:14:57;;;;;;;0.40;0.40;;;;;;;7.20;100.00;98440.81;4878139;29;20184;-80
2020/12/16 12:18:00;;;;;;;0.75;0.43;;;;;;;7.19;100.00;98440.06;4877805;29;20044;-80
2020/12/16 12:21:03;;;;;;;0.55;0.40;;;;;;;7.20;100.00;98447.13;4876804;29;20048;-79
2020/12/16 12:24:06;;;;;;;4.60;0.20;;;;;;;7.18;100.00;98454.41;4878063;29;20048;-79
2020/12/16 12:27:08;;;;;;;0.75;0.17;;;;;;;7.18;100.00;98443.31;4877904;29;20104;-77
2020/12/16 12:30:11;;;;;;;1.38;0.45;;;;;;;7.18;100.00;98449.63;4878067;29;20093;-79
2020/12/16 12:33:14;;;;;;;4.55;0.20;;;;;;;7.17;100.00;98445.31;4878320;29;20160;-80
2020/12/16 12:36:17;;;;;;;7.22;0.40;;;;;;;7.17;100.00;98452.88;4878109;29;20044;-80
2020/12/16 12:39:20;;;;;;;4.95;1.27;;;;;;;7.17;100.00;98447.34;4878084;29;20047;-80
2020/12/16 12:42:26;;;;;;;0.10;0.00;;;;;;;7.17;100.00;98450.13;4877709;29;20509;-80
2020/12/16 12:45:29;;;;;;;1.48;0.30;;;;;;;7.14;100.00;98443.53;4877925;29;20123;-83
2020/12/16 12:48:32;;;;;;;4.57;0.40;;;;;;;7.14;100.00;98446.31;4877279;29;20406;-81
2020/12/16 12:51:35;;;;;;;0.80;0.32;;;;;;;7.13;100.00;98450.31;4878713;29;20115;-80
2020/12/16 12:54:38;;;;;;;1.25;0.17;;;;;;;7.14;100.00;98443.53;4880896;29;20098;-80
2020/12/16 12:57:41;;;;;;;1.23;0.43;;;;;;;7.16;100.00;98452.13;4881018;29;20064;-81
2020/12/16 13:00:44;;;;;;;10.18;0.60;;;;;;;7.19;100.00;98451.13;4880954;29;20097;-79
2020/12/16 13:03:47;;;;;;;1.45;0.55;;;;;;;7.18;100.00;98469.00;4881105;29;20052;-80
2020/12/16 13:06:50;;;;;;;2.90;0.32;;;;;;;7.19;100.00;98494.69;4881091;29;20104;-79
2020/12/16 13:09:53;;;;;;;1.58;0.10;;;;;;;7.15;100.00;98499.66;4880261;29;20107;-79
2020/12/16 13:12:56;;;;;;;1.48;0.30;;;;;;;7.02;100.00;98502.03;4862353;29;20419;-79
2020/12/16 13:15:59;;;;;;;3.25;0.57;;;;;;;6.86;100.00;98511.63;4850844;29;20583;-80
2020/12/16 13:19:05;;;;;;;0.20;0.20;;;;;;;6.73;100.00;98519.50;4862599;29;20101;-81
2020/12/16 13:22:09;;;;;;;3.05;0.20;;;;;;;6.61;100.00;98512.28;4862283;29;20129;-77
2020/12/16 13:25:12;;;;;;;1.20;0.47;;;;;;;6.55;100.00;98514.19;4861516;29;20076;-79
2020/12/16 13:28:16;;;;;;;0.28;0.28;;;;;;;6.50;100.00;98503.81;4861780;29;20051;-80
2020/12/16 13:31:19;;;;;;;1.45;0.30;;;;;;;6.51;100.00;98521.94;4861718;29;20482;-79
2020/12/16 13:34:22;;;;;;;3.53;0.43;;;;;;;6.50;100.00;98517.63;4862194;29;20116;-79
2020/12/16 13:37:25;;;;;;;1.63;0.57;;;;;;;6.49;100.00;98513.38;4889534;29;20162;-79
2020/12/16 13:40:29;;;;;;;1.65;1.00;;;;;;;6.45;100.00;98521.88;4889794;29;20057;-79
2020/12/16 13:43:32;;;;;;;0.85;0.20;;;;;;;6.44;100.00;98530.63;4881304;29;20051;-79
2020/12/16 13:46:35;;;;;;;0.70;0.43;;;;;;;6.41;100.00;98526.06;4890348;29;20056;-80
2020/12/16 13:49:38;;;;;;;4.22;0.40;;;;;;;6.39;100.00;98509.19;4888350;29;20048;-78
2020/12/16 13:52:41;;;;;;;0.20;0.20;;;;;;;6.37;100.00;98512.44;4888134;29;20117;-80
2020/12/16 13:55:44;;;;;;;2.63;1.13;;;;;;;6.36;100.00;98512.91;4879035;29;20060;-82
2020/12/16 13:58:47;;;;;;;0.85;0.10;;;;;;;6.37;100.00;98514.41;4880384;29;20075;-79
2020/12/16 14:01:50;;;;;;;4.13;0.35;;;;;;;6.36;100.00;98508.16;4879777;29;20040;-78
2020/12/16 14:04:53;;;;;;;1.85;0.50;;;;;;;6.36;100.00;98501.84;4879838;29;20043;-82
2020/12/16 14:07:56;;;;;;;1.35;0.65;;;;;;;6.34;100.00;98482.22;4870384;29;20096;-78
2020/12/16 14:10:59;;;;;;;2.70;0.30;;;;;;;6.35;100.00;98489.25;4887579;29;20500;-78
2020/12/16 14:14:02;;;;;;;0.65;0.45;;;;;;;6.34;100.00;98460.88;4886227;29;20455;-79
2020/12/16 14:17:05;;;;;;;0.10;0.10;;;;;;;6.34;100.00;98424.94;4890070;29;20048;-79
2020/12/16 14:20:08;;;;;;;0.57;0.32;;;;;;;6.30;100.00;98426.38;4887504;29;20468;-79
2020/12/16 14:23:11;;;;;;;0.10;0.10;;;;;;;6.28;100.00;98429.59;4883834;29;20092;-80
2020/12/16 14:26:15;;;;;;;0.10;0.00;;;;;;;6.27;100.00;98405.97;4867119;29;20048;-79
2020/12/16 14:29:18;;;;;;;0.10;0.00;;;;;;;6.23;100.00;98393.59;4880727;29;20078;-80
2020/12/16 14:32:24;;;;;;;1.13;0.35;;;;;;;6.20;100.00;98387.03;4882532;29;20463;-79
2020/12/16 14:35:27;;;;;;;1.90;0.30;;;;;;;6.17;100.00;98434.22;4881419;29;20173;-79
2020/12/16 14:38:31;;;;;;;1.50;0.20;;;;;;;6.13;100.00;98456.50;4868179;29;20520;-79
2020/12/16 14:41:34;;;;;;;4.72;0.57;;;;;;;6.09;100.00;98453.94;4879494;29;20052;-79
2020/12/16 14:44:37;;;;;;;0.73;0.30;;;;;;;6.08;100.00;98469.03;4885152;29;20422;-78
2020/12/16 14:47:40;;;;;;;0.63;0.15;;;;;;;6.05;100.00;98467.22;4884980;29;20044;-79
2020/12/16 14:50:44;;;;;;;0.10;0.10;;;;;;;6.06;100.00;98462.44;4883469;29;20044;-79
2020/12/16 14:53:46;;;;;;;0.43;0.10;;;;;;;6.08;100.00;98471.78;4885847;29;20055;-78
2020/12/16 14:56:51;;;;;;;0.47;0.40;;;;;;;6.09;100.00;98472.53;4887098;29;20056;-78
2020/12/16 14:59:53;;;;;;;1.17;0.20;;;;;;;6.06;100.00;98463.19;4884427;29;20097;-79
2020/12/16 15:02:56;;;;;;;7.30;0.25;;;;;;;6.06;100.00;98465.97;4894151;29;20048;-80
2020/12/16 15:06:00;;;;;;;0.68;0.25;;;;;;;6.06;100.00;98476.28;4888515;29;20081;-78
2020/12/16 15:09:03;;;;;;;0.40;0.10;;;;;;;6.02;100.00;98479.22;4871579;29;20410;-79
2020/12/16 15:12:12;;;;;;;1.45;0.40;;;;;;;5.97;100.00;98482.66;4867860;29;20064;-84
2020/12/16 15:15:16;;;;;;;4.03;0.30;;;;;;;5.96;100.00;98478.38;4878438;29;20111;-83
2020/12/16 15:18:19;;;;;;;0.75;0.15;;;;;;;5.98;100.00;98503.50;4878919;29;20083;-82
2020/12/16 15:21:22;;;;;;;0.20;0.10;;;;;;;5.94;100.00;98511.22;4879221;29;20056;-84
2020/12/16 15:24:25;;;;;;;0.38;0.20;;;;;;;5.96;100.00;98522.56;4878967;29;20100;-83
2020/12/16 15:27:28;;;;;;;0.75;0.40;;;;;;;5.91;100.00;98520.47;4878918;29;20051;-81
2020/12/16 15:30:30;;;;;;;1.85;0.50;;;;;;;5.93;100.00;98529.03;4878886;29;20105;-80
2020/12/16 15:33:34;;;;;;;0.73;0.20;;;;;;;5.92;100.00;98530.28;4878562;29;20104;-80
2020/12/16 15:36:37;;;;;;;0.30;0.30;;;;;;;5.86;100.00;98543.25;4878800;29;20039;-80
2020/12/16 15:39:40;;;;;;;0.10;0.10;;;;;;;5.84;100.00;98556.00;4878569;29;20048;-76
2020/12/16 15:42:43;;;;;;;2.10;0.20;;;;;;;5.85;100.00;98568.56;4878701;29;20104;-82
2020/12/16 15:45:45;;;;;;;0.10;0.10;;;;;;;5.79;100.00;98562.94;4867059;29;20053;-82
2020/12/16 15:48:50;;;;;;;7.20;0.65;;;;;;;5.74;100.00;98569.09;4878079;29;20509;-83
2020/12/16 15:51:56;;;;;;;0.25;0.10;;;;;;;5.72;100.00;98560.53;4878336;29;20052;-82
2020/12/16 15:55:00;;;;;;;0.35;0.15;;;;;;;5.69;100.00;98583.59;4878329;29;20047;-82